Latest Coastal Weather Observations for Broome

IDW60701

Issued at 8:42 pm WST Sunday 24 July 2016 (issued every 10 minutes, with the page automatically refreshed every 10 minutes)

About coastal observations | Map of coastal stations | Coastal observations for WA | Marine services | Other Formats
Station Details ID: 003003 Name: BROOME AIRPORT Lat: -17.95 Lon: 122.24 Height: 7.42 m
Data from the previous 72 hours. | See also: Recent months at Broome
Date/Time
WST
Temp
°C
Wind Pressure Rain since
9am
mm
Weather Cloud Vis
km
Sea
Height
m
Swell
Dir  Spd
kts
Gust
kts
hPa Trend Height
m
Period
s
Dir
24/08:30pm 24.2 SSE 5 7 1014.6 - 0.0 - - 10 - - - -
24/08:00pm 25.6 SE 7 10 1014.4 - 0.0 - - 10 - - - -
24/07:30pm 26.1 SE 7 9 1014.2 - 0.0 - - 10 - - - -
24/07:00pm 27.3 SSE 7 11 1013.6 - 0.0 - - 10 - - - -
24/06:30pm 27.8 SSE 6 8 1013.2 - 0.0 - - 10 - - - -
24/06:00pm 27.7 SE 5 7 1012.6 - 0.0 - - 10 - - - -
24/05:30pm 28.3 SE 6 7 1012.4 - 0.0 - - 10 - - - -
24/05:00pm 29.4 SE 6 8 1012.1 - 0.0 - - 10 - - - -
24/04:30pm 30.9 SE 7 10 1011.9 - 0.0 - - 10 - - - -
24/04:00pm 31.0 SE 8 11 1011.7 - 0.0 - - 10 - - - -
24/03:30pm 31.3 SE 8 10 1011.6 - 0.0 - - 10 - - - -
24/03:00pm 31.7 SE 9 12 1011.5 - 0.0 - - 10 - - - -
24/02:30pm 31.8 SE 10 13 1011.8 - 0.0 - - 10 - - - -
24/02:00pm 31.3 SE 10 14 1012.1 - 0.0 - - 10 - - - -
24/01:30pm 31.5 SE 11 16 1012.4 - 0.0 - - 10 - - - -
24/01:00pm 31.6 SE 11 16 1012.8 - 0.0 - - 10 - - - -
24/12:30pm 31.3 ESE 12 16 1013.4 - 0.0 - - 10 - - - -
24/12:00pm 30.9 ESE 13 20 1014.0 - 0.0 - - 10 - - - -
24/11:30am 30.4 ESE 14 22 1014.6 - 0.0 - - 10 - - - -
24/11:00am 28.8 SE 12 16 1015.1 - 0.0 - - 10 - - - -
24/10:30am 27.3 SE 10 15 1015.7 - 0.0 - - 10 - - - -
24/10:00am 26.3 SE 10 16 1016.2 - 0.0 - - 10 - - - -
24/09:30am 25.6 SE 10 15 1016.4 - 0.0 - - 10 - - - -
24/09:00am 22.9 SE 9 12 1016.6 - 0.0 - - 10 - - - -
24/08:30am 22.0 ESE 10 13 1016.8 - 0.0 - - 10 - - - -
24/08:00am 21.5 SE 8 12 1016.7 - 0.0 - - 10 - - - -
24/07:30am 20.9 ESE 8 11 1016.3 - 0.0 - - 10 - - - -
24/07:00am 19.5 E 7 8 1015.9 - 0.0 - - 10 - - - -
24/06:30am 17.4 E 7 9 1015.5 - 0.0 - - 10 - - - -
24/06:00am 16.6 E 6 7 1015.2 - 0.0 - - 10 - - - -
24/05:30am 18.3 E 7 10 1014.7 - 0.0 - - 10 - - - -
24/05:00am 18.0 E 6 7 1014.4 - 0.0 - - 10 - - - -
24/04:30am 18.6 E 7 10 1014.2 - 0.0 - - 10 - - - -
24/04:00am 17.6 ENE 6 8 1014.0 - 0.0 - - 10 - - - -
24/03:30am 18.9 ENE 5 7 1013.7 - 0.0 - - 10 - - - -
24/03:00am 23.1 ESE 11 15 1013.3 - 0.0 - - 10 - - - -
24/02:30am 23.3 ESE 11 15 1013.2 - 0.0 - - 10 - - - -
24/02:00am 23.8 SE 11 16 1013.1 - 0.0 - - 10 - - - -
24/01:30am 23.8 SE 11 17 1013.2 - 0.0 - - 10 - - - -
24/01:00am 24.1 SE 11 14 1013.0 - 0.0 - - 10 - - - -
24/12:30am 23.0 SE 5 7 1013.1 - 0.0 - - 10 - - - -
24/12:00am 22.1 SE 5 6 1012.8 - 0.0 - - 10 - - - -
 
Date/Time
WST
Temp
°C
Wind Pressure Rain since
9am
mm
Weather Cloud Vis
km
Sea
Height
m
Swell
Dir  Spd
kts
Gust
kts
hPa Trend Height
m
Period
s
Dir
23/11:30pm 19.7 ESE 3 4 1013.0 - 0.0 - - 10 - - - -
23/11:00pm 20.4 SE 4 7 1013.0 - 0.0 - - 10 - - - -
23/10:30pm 20.0 ESE 4 5 1013.1 - 0.0 - - 10 - - - -
23/10:00pm 19.3 CALM 0 3 1013.3 - 0.0 - - 10 - - - -
23/09:50pm 20.6 SSE 4 5 1013.3 - 0.0 - - 10 - - - -
23/09:30pm 25.6 S 5 7 1013.2 - 0.0 - - 10 - - - -
23/09:00pm 25.7 S 6 8 1013.1 - 0.0 - - 10 - - - -
23/08:30pm 26.0 S 7 9 1013.1 - 0.0 - - 10 - - - -
23/08:00pm 25.8 SSW 6 9 1012.8 - 0.0 - - 10 - - - -
23/07:30pm 25.8 S 7 10 1012.4 - 0.0 - - 10 - - - -
23/07:00pm 26.1 SSW 5 7 1012.1 - 0.0 - - 10 - - - -
23/06:30pm 26.5 SSW 6 8 1011.7 - 0.0 - - 10 - - - -
23/06:00pm 27.6 SSW 6 9 1011.3 - 0.0 - - 10 - - - -
23/05:30pm 28.0 SW 5 6 1011.1 - 0.0 - - 10 - - - -
23/05:00pm 29.2 SW 10 13 1011.0 - 0.0 - - 10 - - - -
23/04:30pm 33.1 S 4 6 1010.8 - 0.0 - - 10 - - - -
23/04:00pm 33.2 S 6 9 1010.9 - 0.0 - - 10 - - - -
23/03:30pm 33.4 S 6 9 1010.9 - 0.0 - - 10 - - - -
23/03:00pm 33.3 S 6 8 1011.0 - 0.0 - - 10 - - - -
23/02:30pm 33.1 S 8 11 1011.4 - 0.0 - - 10 - - - -
23/02:00pm 32.7 S 8 12 1011.8 - 0.0 - - 10 - - - -
23/01:30pm 32.1 SSE 8 11 1012.1 - 0.0 - - 10 - - - -
23/01:00pm 31.9 SSE 9 13 1012.7 - 0.0 - - 10 - - - -
23/12:30pm 30.9 SSE 8 12 1013.1 - 0.0 - - 10 - - - -
23/12:00pm 29.7 SSE 9 12 1013.6 - 0.0 - - 10 - - - -
23/11:30am 28.9 SE 8 11 1014.1 - 0.0 - - 10 - - - -
23/11:00am 28.5 SE 8 11 1014.5 - 0.0 - - 10 - - - -
23/10:30am 27.3 ESE 9 13 1015.0 - 0.0 - - 10 - - - -
23/10:00am 26.4 ESE 10 14 1015.2 - 0.0 - - 10 - - - -
23/09:30am 24.2 ESE 9 12 1015.5 - 0.0 - - 10 - - - -
23/09:00am 22.6 ESE 9 13 1015.5 - 0.0 - - 10 - - - -
23/08:30am 21.9 ESE 9 11 1015.5 - 0.0 - - 10 - - - -
23/08:00am 21.5 ESE 7 11 1015.2 - 0.0 - - 10 - - - -
23/07:30am 20.2 E 5 7 1014.8 - 0.0 - - 10 - - - -
23/07:00am 19.3 E 6 7 1014.3 - 0.0 - - 10 - - - -
23/06:30am 19.8 ESE 6 7 1014.1 - 0.0 - - 10 - - - -
23/06:00am 20.6 SE 6 8 1013.6 - 0.0 - - 10 - - - -
23/05:30am 21.1 SE 8 12 1013.4 - 0.0 - - 10 - - - -
23/05:00am 19.6 SE 5 6 1013.3 - 0.0 - - 10 - - - -
23/04:30am 19.0 ESE 5 6 1013.0 - 0.0 - - 10 - - - -
23/04:00am 20.5 SE 5 6 1013.2 - 0.0 - - 10 - - - -
23/03:30am 21.7 SE 5 7 1013.3 - 0.0 - - 10 - - - -
23/03:00am 22.6 SE 5 7 1012.9 - 0.0 - - 10 - - - -
23/02:30am 23.3 SSE 6 9 1012.9 - 0.0 - - 10 - - - -
23/02:28am 23.1 SSE 6 9 1013.0 - 0.0 - - 10 - - - -
23/02:00am 18.1 SE 4 5 1013.2 - 0.0 - - 10 - - - -
23/01:30am 17.3 CALM 0 0 1013.2 - 0.0 - - 10 - - - -
23/01:00am 17.1 CALM 0 0 1013.3 - 0.0 - - 10 - - - -
23/12:30am 17.5 NNW 1 3 1013.5 - 0.0 - - 10 - - - -
23/12:00am 18.4 N 3 3 1013.6 - 0.0 - - 10 - - - -
 
Date/Time
WST
Temp
°C
Wind Pressure Rain since
9am
mm
Weather Cloud Vis
km
Sea
Height
m
Swell
Dir  Spd
kts
Gust
kts
hPa Trend Height
m
Period
s
Dir
22/11:30pm 19.1 NNE 3 5 1013.7 - 0.0 - - 10 - - - -
22/11:00pm 21.8 ENE 3 5 1013.7 - 0.0 - - 10 - - - -
22/10:30pm 25.1 SSW 9 11 1013.7 - 0.0 - - 10 - - - -
22/10:00pm 25.1 SSW 9 12 1013.7 - 0.0 - - 10 - - - -
22/09:30pm 25.2 SSW 10 13 1013.5 - 0.0 - - 10 - - - -
22/09:00pm 25.1 SSW 9 12 1013.1 - 0.0 - - 10 - - - -
22/08:30pm 25.0 SSW 9 13 1013.2 - 0.0 - - 10 - - - -
22/08:00pm 25.3 SSW 9 12 1013.0 - 0.0 - - 10 - - - -
22/07:30pm 25.4 SSW 10 13 1012.7 - 0.0 - - 10 - - - -
22/07:00pm 25.5 SSW 9 13 1012.4 - 0.0 - - 10 - - - -
22/06:30pm 25.2 SW 7 10 1012.0 - 0.0 - - 10 - - - -
22/06:00pm 25.5 SW 8 11 1011.5 - 0.0 - - 10 - - - -
22/05:30pm 26.4 WSW 7 8 1011.2 - 0.0 - - 10 - - - -
22/05:00pm 28.3 WSW 6 8 1010.9 - 0.0 - - 10 - - - -
22/04:30pm 29.9 SW 7 8 1010.6 - 0.0 - - 10 - - - -
22/04:00pm 30.9 SW 6 8 1010.7 - 0.0 - - 10 - - - -
22/03:30pm 28.8 W 8 12 1010.7 - 0.0 - - 10 - - - -
22/03:00pm 32.5 SE 6 8 1010.5 - 0.0 - - 10 - - - -
22/02:30pm 32.6 SSE 7 9 1010.9 - 0.0 - - 10 - - - -
22/02:00pm 31.9 S 7 10 1011.2 - 0.0 - - 10 - - - -
22/01:30pm 32.1 SSE 7 12 1011.6 - 0.0 - - 10 - - - -
22/01:00pm 32.5 SSE 6 8 1012.0 - 0.0 - - 10 - - - -
22/12:30pm 31.7 S 5 7 1012.6 - 0.0 - - 10 - - - -
22/12:00pm 31.3 S 5 7 1013.0 - 0.0 - - 10 - - - -
22/11:30am 29.8 ESE 5 7 1013.9 - 0.0 - - 10 - - - -
22/11:00am 28.1 S 5 7 1014.7 - 0.0 - - 10 - - - -
22/10:30am 27.2 SSE 5 7 1015.3 - 0.0 - - 10 - - - -
22/10:00am 26.2 SSE 5 7 1015.7 - 0.0 - - 10 - - - -
22/09:30am 25.2 SSE 5 7 1015.8 - 0.0 - - 10 - - - -
22/09:00am 24.0 ESE 4 6 1015.9 - 0.0 - - 10 - - - -
22/08:30am 23.0 SSE 4 6 1016.0 - 0.0 - - 10 - - - -
22/08:00am 22.1 SE 6 8 1015.8 - 0.0 - - 10 - - - -
22/07:30am 19.4 CALM 0 0 1015.6 - 0.0 - - 10 - - - -
22/07:00am 17.5 CALM 0 0 1015.3 - 0.0 - - 10 - - - -
22/06:30am 16.9 CALM 0 0 1015.2 - 0.0 - - 10 - - - -
22/06:00am 16.8 CALM 0 0 1014.8 - 0.0 - - 10 - - - -
22/05:30am 18.3 CALM 0 0 1014.8 - 0.0 - - 10 - - - -
22/05:00am 19.0 S 1 4 1014.8 - 0.0 - - 10 - - - -
22/04:30am 19.9 S 4 5 1014.7 - 0.0 - - 10 - - - -
22/04:00am 18.9 SSE 3 5 1014.7 - 0.0 - - 10 - - - -
22/03:30am 17.5 S 4 5 1014.6 - 0.0 - - 10 - - - -
22/03:00am 15.9 CALM 0 0 1014.6 - 0.0 - - 10 - - - -
22/02:30am 16.1 CALM 0 0 1014.9 - 0.0 - - 10 - - - -
22/02:00am 16.0 CALM 0 0 1015.0 - 0.0 - - 10 - - - -
22/01:30am 17.1 CALM 0 0 1015.1 - 0.0 - - 10 - - - -
22/01:00am 17.7 CALM 0 0 1015.3 - 0.0 - - 10 - - - -
22/12:30am 21.1 SSW 4 6 1015.3 - 0.0 - - 10 - - - -
22/12:00am 21.5 SSW 5 7 1015.3 - 0.0 - - 10 - - - -
 
Date/Time
WST
Temp
°C
Wind Pressure Rain since
9am
mm
Weather Cloud Vis
km
Sea
Height
m
Swell
Dir  Spd
kts
Gust
kts
hPa Trend Height
m
Period
s
Dir
21/11:30pm 21.6 SSW 5 6 1015.3 - 0.0 - - 10 - - - -
21/11:00pm 21.9 SW 5 7 1015.3 - 0.0 - - 10 - - - -
21/10:30pm 21.9 WSW 5 6 1015.1 - 0.0 - - 10 - - - -
21/10:00pm 22.5 SW 7 9 1015.1 - 0.0 - - 10 - - - -
21/09:30pm 22.6 SW 7 9 1015.0 - 0.0 - - 10 - - - -
21/09:00pm 22.8 SW 7 9 1014.8 - 0.0 - - 10 - - - -

Other Formats:

Comma delimited format used in spreadsheet applications
http://www.bom.gov.au/fwo/IDW60701/IDW60701.94203.axf

JavaScript Object Notation format (JSON) in row-major order
http://www.bom.gov.au/fwo/IDW60701/IDW60701.94203.json